createdAt,value
2022-11-16T00:00:29.605Z,11.13
2022-11-16T00:02:56.738Z,11.17
2022-11-16T00:05:28.181Z,11.37
2022-11-16T00:07:55.821Z,11.50
2022-11-16T00:10:22.845Z,12.77
2022-11-16T00:12:49.870Z,14.00
2022-11-16T00:15:16.926Z,14.30
2022-11-16T00:17:44.010Z,11.50
2022-11-16T00:20:11.250Z,13.47
2022-11-16T00:22:38.290Z,12.20
2022-11-16T00:25:05.580Z,12.83
2022-11-16T00:27:32.753Z,12.00
2022-11-16T00:29:59.804Z,11.67
2022-11-16T00:32:26.830Z,9.73
2022-11-16T00:34:53.900Z,11.23
2022-11-16T00:37:21.101Z,10.37
2022-11-16T00:39:48.167Z,10.27
2022-11-16T00:42:15.214Z,10.93
2022-11-16T00:44:42.345Z,11.40
2022-11-16T00:47:09.437Z,10.73
2022-11-16T00:49:38.349Z,10.53
2022-11-16T00:52:05.457Z,9.80
2022-11-16T00:54:32.611Z,10.90
2022-11-16T00:56:59.654Z,10.50
2022-11-16T00:59:26.781Z,11.23
2022-11-16T01:01:53.843Z,10.00
2022-11-16T01:04:20.900Z,10.60
2022-11-16T01:06:48.032Z,10.50
2022-11-16T01:09:15.288Z,12.03
2022-11-16T01:12:01.420Z,10.70
2022-11-16T01:14:28.578Z,11.70
2022-11-16T01:16:55.653Z,11.30
2022-11-16T01:19:22.822Z,10.47
2022-11-16T01:21:49.846Z,10.90
2022-11-16T01:24:17.006Z,10.70
2022-11-16T01:26:44.029Z,11.57
2022-11-16T01:29:11.117Z,10.27
2022-11-16T01:31:38.157Z,11.00
2022-11-16T01:34:05.217Z,10.97
2022-11-16T01:36:32.358Z,10.60
2022-11-16T01:38:59.445Z,10.50
2022-11-16T01:41:26.607Z,10.57
2022-11-16T01:43:53.694Z,12.10
2022-11-16T01:46:20.996Z,11.90
2022-11-16T01:48:48.695Z,10.80
2022-11-16T01:51:15.819Z,11.20
2022-11-16T01:53:42.900Z,10.93
2022-11-16T01:56:09.978Z,10.17
2022-11-16T01:58:37.062Z,10.17
2022-11-16T02:01:04.217Z,9.87
2022-11-16T02:03:31.262Z,11.47
2022-11-16T02:05:58.362Z,10.40
2022-11-16T02:08:50.025Z,9.80
2022-11-16T02:11:40.327Z,10.50
2022-11-16T02:14:15.018Z,12.20
2022-11-16T02:16:54.537Z,11.20
2022-11-16T02:19:45.533Z,13.87
2022-11-16T02:22:28.172Z,12.30
2022-11-16T02:25:03.588Z,11.23
2022-11-16T02:27:36.296Z,12.50
2022-11-16T02:30:03.630Z,12.20
2022-11-16T02:32:38.433Z,11.40
2022-11-16T02:35:05.509Z,11.67
2022-11-16T02:37:33.902Z,10.57
2022-11-16T02:40:01.665Z,10.83
2022-11-16T02:42:30.048Z,10.10
2022-11-16T02:44:57.200Z,12.00
2022-11-16T02:47:25.665Z,11.47
2022-11-16T02:49:54.173Z,12.13
2022-11-16T02:52:21.213Z,10.13
2022-11-16T02:54:48.322Z,10.80
2022-11-16T02:57:18.146Z,9.90
2022-11-16T02:59:45.794Z,10.30
2022-11-16T03:02:18.866Z,54.93
2022-11-16T03:05:04.781Z,29.40
2022-11-16T03:07:34.169Z,15.63
2022-11-16T03:10:01.402Z,15.70
2022-11-16T03:12:29.931Z,14.90
2022-11-16T03:15:00.582Z,15.17
2022-11-16T03:20:58.977Z,14.77
2022-11-16T03:23:26.116Z,11.83
2022-11-16T03:25:53.308Z,12.70
2022-11-16T03:28:23.284Z,12.27
2022-11-16T03:30:51.324Z,11.60
2022-11-16T03:33:21.551Z,12.17
2022-11-16T03:35:59.916Z,12.50
2022-11-16T03:38:27.106Z,14.27
2022-11-16T03:40:54.157Z,13.97
2022-11-16T03:43:21.252Z,15.20
2022-11-16T03:45:48.583Z,13.50
2022-11-16T03:48:15.655Z,13.20
2022-11-16T03:50:42.697Z,13.37
2022-11-16T03:53:09.992Z,13.40
2022-11-16T03:55:37.121Z,14.93
2022-11-16T03:58:04.554Z,15.10
2022-11-16T04:00:31.706Z,13.67
2022-11-16T04:02:58.836Z,14.17
2022-11-16T04:05:44.640Z,13.63
2022-11-16T04:08:33.134Z,14.50
2022-11-16T04:11:18.926Z,13.90
2022-11-16T04:14:08.922Z,13.70
2022-11-16T04:16:55.008Z,14.20
2022-11-16T04:19:41.068Z,13.70
2022-11-16T04:22:31.730Z,12.90
2022-11-16T04:25:00.479Z,12.47
2022-11-16T04:27:47.762Z,12.83
2022-11-16T04:30:14.809Z,12.40
2022-11-16T04:33:00.769Z,13.10
2022-11-16T04:35:46.671Z,14.57
2022-11-16T04:38:13.729Z,12.37
2022-11-16T04:40:40.914Z,12.40
2022-11-16T04:43:07.959Z,13.23
2022-11-16T04:45:53.983Z,12.20
2022-11-16T04:48:21.102Z,13.60
2022-11-16T04:50:48.198Z,12.37
2022-11-16T04:53:15.284Z,13.33
2022-11-16T04:55:42.474Z,12.00
2022-11-16T04:58:09.547Z,13.20
2022-11-16T05:00:36.599Z,12.80
2022-11-16T05:03:04.495Z,13.50
2022-11-16T05:05:31.584Z,12.23
2022-11-16T05:07:58.669Z,12.33
2022-11-16T05:10:25.749Z,12.43
2022-11-16T05:12:52.860Z,12.77
2022-11-16T05:15:19.966Z,13.80
2022-11-16T05:17:47.444Z,13.60
2022-11-16T05:20:33.317Z,13.50
2022-11-16T05:23:00.395Z,12.93
2022-11-16T05:25:28.536Z,12.20
2022-11-16T05:27:58.456Z,13.23
2022-11-16T05:30:25.488Z,12.63
2022-11-16T05:32:52.528Z,13.27
2022-11-16T05:35:19.625Z,13.47
2022-11-16T05:37:46.662Z,12.77
2022-11-16T05:40:13.822Z,13.00
2022-11-16T05:42:40.854Z,12.53
2022-11-16T05:45:08.085Z,13.00
2022-11-16T05:47:35.185Z,12.50
2022-11-16T05:50:02.405Z,12.47
2022-11-16T05:52:29.656Z,12.90
2022-11-16T05:54:56.726Z,14.70
2022-11-16T05:57:23.803Z,14.90
2022-11-16T05:59:50.956Z,15.73
2022-11-16T06:02:18.013Z,14.77
2022-11-16T06:04:45.036Z,14.73
2022-11-16T06:07:12.620Z,13.30
2022-11-16T06:09:39.727Z,14.47
2022-11-16T06:12:06.820Z,14.97
2022-11-16T06:14:33.906Z,15.23
2022-11-16T06:17:01.020Z,13.43
2022-11-16T06:19:32.152Z,14.27
2022-11-16T06:21:59.727Z,14.07
2022-11-16T06:24:26.925Z,13.23
2022-11-16T06:26:54.239Z,13.00
2022-11-16T06:29:21.550Z,13.40
2022-11-16T06:31:48.675Z,12.57
2022-11-16T06:34:15.853Z,12.30
2022-11-16T06:36:43.096Z,12.60
2022-11-16T06:39:11.381Z,11.50
2022-11-16T06:41:41.321Z,12.50
2022-11-16T06:44:08.918Z,12.43
2022-11-16T06:46:36.010Z,12.67
2022-11-16T06:49:03.094Z,12.97
2022-11-16T06:51:30.208Z,12.20
2022-11-16T06:53:57.269Z,11.77
2022-11-16T06:56:24.430Z,13.87
2022-11-16T06:58:53.415Z,12.53
2022-11-16T07:01:21.177Z,11.40
2022-11-16T07:03:48.488Z,12.13
2022-11-16T07:06:16.544Z,12.30
2022-11-16T07:08:43.692Z,11.20
2022-11-16T07:11:11.189Z,12.80
2022-11-16T07:13:38.451Z,12.10
2022-11-16T07:16:08.948Z,12.07
2022-11-16T07:18:36.931Z,11.13
2022-11-16T07:21:11.722Z,12.63
2022-11-16T07:23:39.003Z,13.33
2022-11-16T07:26:06.630Z,12.87
2022-11-16T07:28:34.081Z,12.70
2022-11-16T07:31:02.069Z,14.17
2022-11-16T07:33:29.334Z,12.43
2022-11-16T07:36:00.686Z,15.00
2022-11-16T07:38:27.754Z,16.37
2022-11-16T07:40:54.798Z,16.40
2022-11-16T07:43:21.888Z,14.27
2022-11-16T07:45:48.979Z,13.80
2022-11-16T07:48:16.130Z,15.10
2022-11-16T07:50:43.241Z,32.30
2022-11-16T07:53:10.269Z,19.90
2022-11-16T07:55:37.458Z,15.90
2022-11-16T07:58:04.934Z,16.27
2022-11-16T08:00:32.123Z,16.50
2022-11-16T08:02:59.431Z,14.57
2022-11-16T08:05:26.473Z,15.83
2022-11-16T08:07:53.559Z,24.30
2022-11-16T08:10:21.575Z,40.40
2022-11-16T08:12:48.875Z,20.83
2022-11-16T08:15:16.047Z,34.43
2022-11-16T08:17:43.096Z,20.37
2022-11-16T08:20:10.270Z,20.80
2022-11-16T08:22:37.427Z,21.27
2022-11-16T08:25:04.781Z,15.50
2022-11-16T08:27:32.533Z,19.53
2022-11-16T08:29:59.595Z,16.00
2022-11-16T08:32:29.629Z,15.53
2022-11-16T08:34:57.039Z,13.70
2022-11-16T08:37:25.356Z,14.90
2022-11-16T08:39:52.494Z,14.47
2022-11-16T08:42:19.585Z,15.17
2022-11-16T08:44:46.658Z,13.60
2022-11-16T08:47:13.752Z,14.57
2022-11-16T08:49:43.989Z,13.13
2022-11-16T08:52:15.382Z,14.27
2022-11-16T08:54:42.532Z,24.03
2022-11-16T08:57:09.590Z,21.23
2022-11-16T08:59:36.732Z,16.10
2022-11-16T09:02:03.888Z,16.10
2022-11-16T09:04:36.726Z,15.73
2022-11-16T09:07:04.358Z,15.60
2022-11-16T09:09:31.512Z,14.80
2022-11-16T09:11:58.613Z,16.20
2022-11-16T09:14:27.727Z,11.73
2022-11-16T09:16:54.926Z,13.37
2022-11-16T09:19:22.016Z,15.40
2022-11-16T09:21:50.034Z,40.47
2022-11-16T09:24:17.078Z,24.70
2022-11-16T09:26:44.134Z,23.00
2022-11-16T09:29:12.910Z,37.70
2022-11-16T09:31:40.037Z,31.77
2022-11-16T09:34:07.290Z,18.20
2022-11-16T09:36:34.408Z,16.80
2022-11-16T09:41:57.015Z,15.90
2022-11-16T09:44:39.595Z,17.70
2022-11-16T09:47:09.595Z,12.53
2022-11-16T09:49:37.250Z,14.63
2022-11-16T09:52:05.417Z,12.47
2022-11-16T09:54:34.778Z,12.73
2022-11-16T09:57:05.542Z,12.90
2022-11-16T09:59:39.328Z,11.90
2022-11-16T10:02:17.674Z,11.50
2022-11-16T10:04:47.219Z,13.00
2022-11-16T10:07:18.105Z,9.90
2022-11-16T10:09:46.460Z,11.07
2022-11-16T10:12:25.621Z,10.47
2022-11-16T10:15:12.743Z,10.53
2022-11-16T10:17:46.217Z,10.80
2022-11-16T10:20:30.501Z,9.70
2022-11-16T10:23:01.750Z,9.20
2022-11-16T10:25:36.049Z,9.07
2022-11-16T10:28:14.462Z,10.40
2022-11-16T10:30:44.868Z,8.70
2022-11-16T10:33:13.538Z,9.10
2022-11-16T10:35:43.467Z,8.20
2022-11-16T10:38:17.234Z,8.33
2022-11-16T10:40:44.915Z,9.03
2022-11-16T10:43:15.840Z,7.43
2022-11-16T10:46:01.793Z,7.53
2022-11-16T10:48:41.125Z,6.80
2022-11-16T10:51:08.557Z,6.20
2022-11-16T10:53:44.992Z,7.87
2022-11-16T10:56:31.929Z,7.47
2022-11-16T10:58:59.813Z,8.97
2022-11-16T11:01:42.321Z,6.70
2022-11-16T11:04:16.567Z,6.90
2022-11-16T11:06:43.760Z,5.43
2022-11-16T11:09:16.954Z,7.37
2022-11-16T11:12:02.760Z,7.47
2022-11-16T11:14:32.457Z,7.13
2022-11-16T11:17:06.352Z,6.97
2022-11-16T11:19:33.403Z,6.30
2022-11-16T11:22:00.692Z,6.37
2022-11-16T11:24:45.018Z,6.33
2022-11-16T11:27:13.068Z,5.40
2022-11-16T11:29:40.174Z,4.87
2022-11-16T11:32:07.987Z,4.53
2022-11-16T11:34:35.953Z,4.43
2022-11-16T11:37:03.158Z,3.83
2022-11-16T11:39:31.396Z,4.30
2022-11-16T11:42:02.458Z,4.30
2022-11-16T11:44:38.478Z,4.80
2022-11-16T11:50:16.476Z,4.07
2022-11-16T11:52:47.822Z,4.87
2022-11-16T11:55:15.629Z,4.53
2022-11-16T11:57:43.427Z,4.43
2022-11-16T12:00:14.042Z,4.80
2022-11-16T12:02:59.305Z,7.13
2022-11-16T12:05:34.978Z,6.00
2022-11-16T12:08:17.093Z,6.70
2022-11-16T12:10:51.891Z,16.10
2022-11-16T12:13:37.680Z,6.20
2022-11-16T12:16:08.569Z,5.43
2022-11-16T12:18:51.077Z,7.77
2022-11-16T12:21:36.792Z,6.93
2022-11-16T12:24:10.308Z,6.60
2022-11-16T12:26:37.409Z,4.70
2022-11-16T12:29:23.104Z,5.00
2022-11-16T12:32:00.602Z,5.03
2022-11-16T12:34:38.096Z,5.07
2022-11-16T12:37:08.275Z,5.70
2022-11-16T12:39:35.596Z,5.03
2022-11-16T12:42:08.584Z,7.13
2022-11-16T12:45:01.994Z,5.10
2022-11-16T12:47:49.702Z,5.50
2022-11-16T12:50:19.891Z,5.40
2022-11-16T12:52:54.070Z,4.63
2022-11-16T12:55:34.151Z,5.73
2022-11-16T12:58:01.190Z,4.47
2022-11-16T13:00:28.388Z,6.00
2022-11-16T13:03:09.589Z,7.30
2022-11-16T13:05:42.655Z,4.30
2022-11-16T13:08:28.413Z,5.10
2022-11-16T13:11:01.055Z,8.00
2022-11-16T13:13:38.585Z,8.47
2022-11-16T13:16:06.192Z,11.30
2022-11-16T13:18:33.485Z,5.67
2022-11-16T13:21:00.509Z,4.63
2022-11-16T13:23:42.676Z,4.80
2022-11-16T13:26:30.010Z,6.10
2022-11-16T13:29:09.310Z,5.73
2022-11-16T13:31:49.100Z,5.40
2022-11-16T13:34:22.817Z,5.47
2022-11-16T13:36:49.942Z,4.90
2022-11-16T13:39:22.685Z,4.53
2022-11-16T13:41:50.808Z,4.10
2022-11-16T13:44:18.783Z,4.63
2022-11-16T13:46:55.672Z,5.27
2022-11-16T13:49:32.743Z,4.57
2022-11-16T13:52:11.638Z,4.40
2022-11-16T13:54:54.997Z,4.40
2022-11-16T13:57:22.740Z,4.83
2022-11-16T13:59:50.205Z,6.20
2022-11-16T14:02:29.517Z,5.40
2022-11-16T14:04:59.423Z,5.50
2022-11-16T14:07:42.889Z,5.60
2022-11-16T14:10:10.687Z,5.53
2022-11-16T14:12:53.199Z,5.00
2022-11-16T14:15:24.105Z,5.50
2022-11-16T14:17:51.176Z,5.87
2022-11-16T14:20:44.672Z,4.77
2022-11-16T14:23:21.072Z,5.03
2022-11-16T14:26:00.311Z,5.50
2022-11-16T14:28:27.383Z,5.53
2022-11-16T14:30:54.413Z,5.57
2022-11-16T14:33:34.622Z,5.70
2022-11-16T14:36:03.429Z,5.00
2022-11-16T14:38:34.044Z,4.90
2022-11-16T14:41:02.144Z,5.57
2022-11-16T14:43:31.183Z,5.30
2022-11-16T14:46:03.237Z,6.10
2022-11-16T14:48:30.380Z,6.40
2022-11-16T14:51:00.520Z,6.23
2022-11-16T14:53:27.617Z,6.60
2022-11-16T14:55:55.009Z,5.67
2022-11-16T14:58:23.172Z,5.83
2022-11-16T15:00:57.514Z,4.83
2022-11-16T15:03:24.775Z,6.37
2022-11-16T15:05:51.893Z,5.57
2022-11-16T15:08:22.957Z,6.30
2022-11-16T15:10:52.642Z,5.77
2022-11-16T15:13:21.423Z,5.60
2022-11-16T15:15:50.144Z,4.80
2022-11-16T15:18:20.663Z,6.13
2022-11-16T15:20:48.788Z,5.70
2022-11-16T15:23:15.951Z,5.87
2022-11-16T15:25:52.480Z,5.60
2022-11-16T15:28:24.016Z,6.47
2022-11-16T15:30:51.668Z,6.47
2022-11-16T15:33:19.755Z,6.00
2022-11-16T15:35:47.354Z,5.43
2022-11-16T15:38:18.265Z,5.50
2022-11-16T15:40:47.646Z,6.30
2022-11-16T15:43:14.744Z,7.00
2022-11-16T15:45:42.517Z,7.03
2022-11-16T15:48:10.008Z,7.00
2022-11-16T15:50:37.250Z,6.50
2022-11-16T15:53:04.322Z,6.53
2022-11-16T15:55:35.361Z,6.70
2022-11-16T15:58:03.559Z,6.83
2022-11-16T16:00:30.978Z,6.63
2022-11-16T16:03:24.712Z,7.10
2022-11-16T16:05:52.009Z,7.80
2022-11-16T16:08:24.313Z,6.27
2022-11-16T16:11:01.067Z,6.60
2022-11-16T16:13:29.939Z,16.53
2022-11-16T16:16:13.457Z,21.60
2022-11-16T16:18:43.663Z,20.93
2022-11-16T16:21:10.903Z,10.37
2022-11-16T16:23:45.510Z,6.63
2022-11-16T16:26:12.642Z,6.33
2022-11-16T16:28:39.690Z,6.20
2022-11-16T16:31:06.914Z,6.03
2022-11-16T16:33:34.234Z,6.67
2022-11-16T16:36:01.860Z,6.10
2022-11-16T16:38:29.344Z,5.67
2022-11-16T16:41:02.861Z,6.13
2022-11-16T16:43:30.204Z,6.83
2022-11-16T16:45:57.352Z,6.50
2022-11-16T16:48:24.462Z,5.63
2022-11-16T16:50:51.664Z,6.40
2022-11-16T16:53:18.825Z,5.87
2022-11-16T16:55:47.489Z,5.50
2022-11-16T16:58:15.028Z,5.40
2022-11-16T17:00:42.395Z,5.33
2022-11-16T17:03:09.574Z,5.63
2022-11-16T17:05:37.204Z,4.90
2022-11-16T17:08:04.334Z,5.40
2022-11-16T17:10:31.445Z,4.87
2022-11-16T17:12:58.966Z,5.03
2022-11-16T17:15:26.824Z,5.30
2022-11-16T17:17:53.927Z,5.63
2022-11-16T17:20:20.987Z,5.60
2022-11-16T17:22:48.074Z,6.00
2022-11-16T17:25:15.191Z,5.33
2022-11-16T17:27:42.230Z,4.97
2022-11-16T17:30:09.879Z,5.27
2022-11-16T17:32:36.947Z,4.47
2022-11-16T17:35:04.005Z,5.87
2022-11-16T17:37:31.026Z,7.07
2022-11-16T17:39:58.169Z,7.53
2022-11-16T17:42:25.304Z,6.30
2022-11-16T17:44:53.910Z,5.53
2022-11-16T17:47:21.016Z,4.77
2022-11-16T17:49:48.080Z,5.40
2022-11-16T17:52:15.148Z,5.63
2022-11-16T17:54:42.271Z,5.70
2022-11-16T17:57:09.422Z,4.70
2022-11-16T17:59:36.566Z,5.17
2022-11-16T18:02:03.770Z,5.60
2022-11-16T18:04:30.830Z,5.10
2022-11-16T18:06:59.648Z,5.30
2022-11-16T18:09:26.750Z,4.60
2022-11-16T18:11:53.810Z,4.53
2022-11-16T18:14:20.901Z,6.37
2022-11-16T18:16:48.033Z,6.20
2022-11-16T18:19:16.062Z,7.17
2022-11-16T18:21:43.197Z,6.83
2022-11-16T18:24:10.331Z,6.97
2022-11-16T18:26:37.494Z,6.50
2022-11-16T18:29:04.790Z,8.10
2022-11-16T18:31:32.987Z,6.63
2022-11-16T18:34:00.909Z,7.10
2022-11-16T18:36:27.948Z,6.40
2022-11-16T18:38:55.070Z,6.73
2022-11-16T18:41:23.422Z,6.23
2022-11-16T18:43:51.560Z,6.80
2022-11-16T18:46:19.484Z,6.67
2022-11-16T18:48:46.852Z,7.50
2022-11-16T18:51:14.367Z,6.63
2022-11-16T18:53:41.554Z,7.70
2022-11-16T18:56:08.978Z,7.90
2022-11-16T18:58:49.690Z,7.90
2022-11-16T19:01:18.267Z,7.60
2022-11-16T19:03:45.478Z,6.60
2022-11-16T19:06:12.627Z,7.67
2022-11-16T19:08:40.318Z,6.20
2022-11-16T19:11:08.020Z,8.67
2022-11-16T19:13:35.475Z,6.90
2022-11-16T19:16:03.022Z,8.80
2022-11-16T19:18:30.144Z,8.50
2022-11-16T19:21:04.309Z,8.83
2022-11-16T19:23:31.596Z,8.80
2022-11-16T19:26:04.334Z,11.67
2022-11-16T19:28:32.266Z,10.90
2022-11-16T19:30:59.418Z,11.50
2022-11-16T19:33:26.556Z,11.60
2022-11-16T19:35:53.692Z,11.30
2022-11-16T19:38:20.727Z,9.20
2022-11-16T19:40:50.454Z,10.83
2022-11-16T19:43:17.628Z,11.10
2022-11-16T19:45:44.766Z,10.00
2022-11-16T19:48:11.813Z,9.43
2022-11-16T19:50:38.848Z,10.33
2022-11-16T19:53:05.996Z,9.63
2022-11-16T19:55:33.126Z,10.40
2022-11-16T19:58:00.286Z,11.03
2022-11-16T20:00:27.388Z,9.93
2022-11-16T20:02:57.916Z,10.70
2022-11-16T20:05:26.065Z,12.03
2022-11-16T20:07:53.126Z,10.63
2022-11-16T20:10:20.249Z,10.77
2022-11-16T20:12:49.590Z,9.77
2022-11-16T20:15:16.763Z,10.13
2022-11-16T20:17:43.870Z,10.20
2022-11-16T20:20:11.340Z,10.00
2022-11-16T20:22:38.445Z,9.90
2022-11-16T20:25:05.631Z,10.47
2022-11-16T20:27:32.730Z,10.77
2022-11-16T20:30:02.644Z,9.80
2022-11-16T20:32:32.097Z,9.20
2022-11-16T20:34:59.205Z,9.77
2022-11-16T20:37:26.335Z,8.13
2022-11-16T20:39:57.390Z,10.83
2022-11-16T20:42:24.647Z,8.90
2022-11-16T20:44:51.747Z,9.60
2022-11-16T20:47:18.918Z,8.60
2022-11-16T20:49:46.068Z,10.10
2022-11-16T20:52:13.257Z,8.80
2022-11-16T20:54:40.332Z,10.23
2022-11-16T20:57:07.572Z,9.73
2022-11-16T20:59:34.735Z,11.20
2022-11-16T21:02:01.877Z,13.03
2022-11-16T21:04:29.011Z,12.37
2022-11-16T21:06:56.428Z,11.27
2022-11-16T21:09:23.834Z,10.67
2022-11-16T21:12:09.571Z,12.00
2022-11-16T21:14:36.846Z,10.97
2022-11-16T21:17:03.870Z,10.00
2022-11-16T21:19:30.984Z,10.33
2022-11-16T21:21:58.118Z,10.27
2022-11-16T21:24:27.462Z,10.50
2022-11-16T21:26:54.623Z,10.90
2022-11-16T21:29:25.888Z,13.00
2022-11-16T21:31:53.008Z,12.70
2022-11-16T21:34:20.273Z,12.30
2022-11-16T21:36:47.613Z,11.80
2022-11-16T21:39:14.725Z,12.40
2022-11-16T21:41:41.802Z,12.57
2022-11-16T21:44:08.885Z,10.97
2022-11-16T21:46:35.984Z,13.00
2022-11-16T21:49:03.070Z,11.17
2022-11-16T21:51:30.882Z,12.30
2022-11-16T21:53:57.960Z,12.10
2022-11-16T21:56:25.332Z,12.20
2022-11-16T21:58:53.150Z,11.27
2022-11-16T22:01:20.512Z,11.17
2022-11-16T22:04:07.553Z,12.23
2022-11-16T22:06:53.364Z,10.80
2022-11-16T22:09:20.504Z,15.07
2022-11-16T22:11:47.646Z,15.53
2022-11-16T22:14:14.688Z,12.70
2022-11-16T22:16:41.722Z,12.00
2022-11-16T22:19:08.812Z,13.00
2022-11-16T22:21:35.917Z,11.03
2022-11-16T22:24:03.065Z,11.00
2022-11-16T22:26:30.174Z,11.33
2022-11-16T22:28:58.796Z,12.03
2022-11-16T22:31:26.062Z,12.93
2022-11-16T22:33:56.426Z,12.90
2022-11-16T22:36:23.459Z,11.17
2022-11-16T22:38:50.597Z,11.30
2022-11-16T22:41:20.802Z,11.63
2022-11-16T22:43:47.925Z,12.10
2022-11-16T22:46:15.326Z,11.37
2022-11-16T22:48:43.399Z,10.27
2022-11-16T22:51:10.457Z,12.13
2022-11-16T22:53:37.896Z,11.70
2022-11-16T22:56:09.214Z,10.50
2022-11-16T22:58:36.791Z,11.90
2022-11-16T23:01:04.359Z,11.70
2022-11-16T23:03:31.631Z,10.83
2022-11-16T23:05:59.556Z,10.97
2022-11-16T23:08:26.824Z,10.60
2022-11-16T23:11:28.885Z,10.40
2022-11-16T23:14:14.649Z,10.90
2022-11-16T23:16:41.850Z,11.30
2022-11-16T23:19:28.655Z,11.77
2022-11-16T23:22:14.618Z,11.40
2022-11-16T23:25:00.431Z,12.40
2022-11-16T23:27:31.884Z,12.03
2022-11-16T23:30:05.363Z,10.33
2022-11-16T23:32:34.964Z,11.50
2022-11-16T23:35:02.127Z,11.50
2022-11-16T23:37:29.177Z,11.57
2022-11-16T23:39:56.241Z,10.93
2022-11-16T23:42:42.096Z,13.13
2022-11-16T23:45:09.457Z,11.50
2022-11-16T23:47:36.532Z,11.47
2022-11-16T23:50:03.625Z,11.97
2022-11-16T23:52:30.694Z,10.93
2022-11-16T23:54:57.741Z,11.10
2022-11-16T23:57:24.773Z,10.63
2022-11-16T23:59:51.906Z,10.87
